Kilauea, Hawaii
Current Conditions -  °F | °C
As of 6:53 AM on Friday 28 Nov 2014 (Local Time) from PHLI Reporting Station
Overcast Overcast  
Wind Chill: 73°   Ceiling: 4300
Heat Index: 73°   Visibility: 10mi
Dew Point: 61°   Wind: 22mph
Humidity: 66%   Direction: 50°NE
Pressure: 30.08"   Gusts: 28mph
Location:  22.2°N, 159.4°W
Report Text: PHLI 281653Z 05019G24KT 10SM BKN043 OVC050 23/16 A3008 RMK AO2 PK WND 04029/1611 RAB1557E27 SLP185 P0000 T02280161 $
Loading
Personal Weather Stations






























Interactive Weather Map New forecast layout! Learn more

10-Day Weather Forecast

Advertisements
Track Severe Weather on mobile